aviador You're here:

KNMM Decoded Metar

MERIDIAN in MS, USA
Report Time2017-08-22 02:56:00
UTC Time2017-08-22 03:24:37
Flight Rules vfr VFR
Wind180° at 04 kt
W.Decomp.*RWY 19: 3.9 kt HW 0.8 kt LCW
RWY 10: 0.8 kt HW 3.9 kt RCW
W.Rank180° ranks 15
Current wind is below 180° avg. (5.3)
Visibility9999 m
Phenomena:N/A
Clouds:Broken 300 Hf
Expected CloudBase > 1,200 ft AGL from Temp-Dew spread
Ceiling30,000 ft
Temp27°C (ISA +13)
Dew Point24°C (84% RH)
Heat Index30.1°C
QNH1020 hPa
Density Alt1,932 ft
Elevation318 ft
Report Wrong Elevation
Raw Report
KNMM 220256Z 18004KT 10SM BKN300 27/24 A3013 RMK AO2 SLP209
T02720244 53018=

Extra information for KNMM:More info

Metar Taf Metar & Taf Last 4 Metars F.Rules Stats Wind Profile Meteogram Temp Stats Airport Information Weather charts Add Link Nearby VenuesMetar ALERT Operation Metar Decoded Social comments

AIRNAV info for KNMM